sensor_id;sensor_type;location;lat;lon;timestamp;P1;durP1;ratioP1;P2;durP2;ratioP2
26484;SDS011;18083;50.560;7.262;2023-04-25T00:02:01;14.47;;;5.67;;
26484;SDS011;18083;50.560;7.262;2023-04-25T00:04:29;8.53;;;5.33;;
26484;SDS011;18083;50.560;7.262;2023-04-25T00:06:58;9.23;;;5.13;;
26484;SDS011;18083;50.560;7.262;2023-04-25T00:09:27;6.43;;;4.47;;
26484;SDS011;18083;50.560;7.262;2023-04-25T00:11:55;9.13;;;4.63;;
26484;SDS011;18083;50.560;7.262;2023-04-25T00:14:22;10.83;;;4.43;;
26484;SDS011;18083;50.560;7.262;2023-04-25T00:16:49;6.83;;;4.03;;
26484;SDS011;18083;50.560;7.262;2023-04-25T00:19:18;10.70;;;4.53;;
26484;SDS011;18083;50.560;7.262;2023-04-25T00:21:45;9.10;;;4.83;;
26484;SDS011;18083;50.560;7.262;2023-04-25T00:24:12;10.27;;;4.07;;
26484;SDS011;18083;50.560;7.262;2023-04-25T00:26:40;9.80;;;4.63;;
26484;SDS011;18083;50.560;7.262;2023-04-25T00:29:07;15.70;;;4.37;;
26484;SDS011;18083;50.560;7.262;2023-04-25T00:31:34;7.30;;;3.90;;
26484;SDS011;18083;50.560;7.262;2023-04-25T00:34:02;8.53;;;4.93;;
26484;SDS011;18083;50.560;7.262;2023-04-25T00:36:29;10.27;;;5.67;;
26484;SDS011;18083;50.560;7.262;2023-04-25T00:38:56;8.87;;;5.73;;
26484;SDS011;18083;50.560;7.262;2023-04-25T00:41:25;10.03;;;6.30;;
26484;SDS011;18083;50.560;7.262;2023-04-25T00:43:53;11.47;;;6.27;;
26484;SDS011;18083;50.560;7.262;2023-04-25T00:46:21;8.13;;;5.77;;
26484;SDS011;18083;50.560;7.262;2023-04-25T00:48:48;8.40;;;6.33;;
26484;SDS011;18083;50.560;7.262;2023-04-25T00:51:16;9.90;;;5.63;;
26484;SDS011;18083;50.560;7.262;2023-04-25T00:53:45;7.70;;;5.80;;
26484;SDS011;18083;50.560;7.262;2023-04-25T00:56:12;13.43;;;6.13;;
26484;SDS011;18083;50.560;7.262;2023-04-25T00:58:40;9.00;;;6.07;;
26484;SDS011;18083;50.560;7.262;2023-04-25T01:01:09;9.03;;;6.53;;
26484;SDS011;18083;50.560;7.262;2023-04-25T02:10:37;14.33;;;8.13;;
26484;SDS011;18083;50.560;7.262;2023-04-25T02:13:04;13.13;;;6.93;;
26484;SDS011;18083;50.560;7.262;2023-04-25T02:15:32;8.33;;;6.47;;
26484;SDS011;18083;50.560;7.262;2023-04-25T02:17:59;16.20;;;6.83;;
26484;SDS011;18083;50.560;7.262;2023-04-25T02:20:27;12.83;;;7.40;;
26484;SDS011;18083;50.560;7.262;2023-04-25T02:22:54;11.23;;;7.10;;
26484;SDS011;18083;50.560;7.262;2023-04-25T02:25:22;10.03;;;6.30;;
26484;SDS011;18083;50.560;7.262;2023-04-25T02:27:49;11.50;;;7.53;;
26484;SDS011;18083;50.560;7.262;2023-04-25T02:30:17;15.13;;;8.03;;
26484;SDS011;18083;50.560;7.262;2023-04-25T02:32:44;13.20;;;7.17;;
26484;SDS011;18083;50.560;7.262;2023-04-25T02:35:12;24.50;;;7.73;;
26484;SDS011;18083;50.560;7.262;2023-04-25T02:37:39;15.03;;;8.43;;
26484;SDS011;18083;50.560;7.262;2023-04-25T02:40:07;11.07;;;7.60;;
26484;SDS011;18083;50.560;7.262;2023-04-25T02:42:35;24.30;;;9.70;;
26484;SDS011;18083;50.560;7.262;2023-04-25T02:45:02;17.13;;;8.93;;
26484;SDS011;18083;50.560;7.262;2023-04-25T02:47:29;17.33;;;7.20;;
26484;SDS011;18083;50.560;7.262;2023-04-25T02:49:57;12.70;;;7.90;;
26484;SDS011;18083;50.560;7.262;2023-04-25T02:52:24;19.87;;;8.27;;
26484;SDS011;18083;50.560;7.262;2023-04-25T02:54:51;14.60;;;7.50;;
26484;SDS011;18083;50.560;7.262;2023-04-25T02:57:19;13.97;;;8.03;;
26484;SDS011;18083;50.560;7.262;2023-04-25T02:59:46;16.40;;;8.20;;
26484;SDS011;18083;50.560;7.262;2023-04-25T03:02:13;14.77;;;8.30;;
26484;SDS011;18083;50.560;7.262;2023-04-25T03:04:41;13.93;;;8.13;;
26484;SDS011;18083;50.560;7.262;2023-04-25T03:07:08;16.67;;;8.13;;
26484;SDS011;18083;50.560;7.262;2023-04-25T03:09:35;12.03;;;7.90;;
26484;SDS011;18083;50.560;7.262;2023-04-25T03:12:02;15.47;;;8.53;;
26484;SDS011;18083;50.560;7.262;2023-04-25T03:14:30;12.63;;;7.60;;
26484;SDS011;18083;50.560;7.262;2023-04-25T03:16:57;15.50;;;7.97;;
26484;SDS011;18083;50.560;7.262;2023-04-25T03:19:24;16.07;;;9.07;;
26484;SDS011;18083;50.560;7.262;2023-04-25T03:21:52;17.87;;;8.43;;
26484;SDS011;18083;50.560;7.262;2023-04-25T03:24:19;13.73;;;7.20;;
26484;SDS011;18083;50.560;7.262;2023-04-25T03:26:47;15.40;;;8.07;;
26484;SDS011;18083;50.560;7.262;2023-04-25T03:29:14;15.23;;;8.43;;
26484;SDS011;18083;50.560;7.262;2023-04-25T03:31:41;12.97;;;8.83;;
26484;SDS011;18083;50.560;7.262;2023-04-25T03:34:09;16.00;;;7.93;;
26484;SDS011;18083;50.560;7.262;2023-04-25T03:36:36;17.10;;;9.30;;
26484;SDS011;18083;50.560;7.262;2023-04-25T03:39:03;15.17;;;7.53;;
26484;SDS011;18083;50.560;7.262;2023-04-25T03:41:30;14.33;;;7.73;;
26484;SDS011;18083;50.560;7.262;2023-04-25T03:43:58;14.73;;;7.30;;
26484;SDS011;18083;50.560;7.262;2023-04-25T03:46:25;17.00;;;7.17;;
26484;SDS011;18083;50.560;7.262;2023-04-25T03:48:52;14.93;;;7.77;;
26484;SDS011;18083;50.560;7.262;2023-04-25T03:51:20;12.40;;;7.60;;
26484;SDS011;18083;50.560;7.262;2023-04-25T03:53:47;16.80;;;6.93;;
26484;SDS011;18083;50.560;7.262;2023-04-25T03:56:14;12.03;;;7.37;;
26484;SDS011;18083;50.560;7.262;2023-04-25T03:58:42;14.17;;;7.70;;
26484;SDS011;18083;50.560;7.262;2023-04-25T04:01:09;13.70;;;6.60;;
26484;SDS011;18083;50.560;7.262;2023-04-25T04:03:37;11.33;;;6.60;;
26484;SDS011;18083;50.560;7.262;2023-04-25T04:06:04;12.17;;;6.43;;
26484;SDS011;18083;50.560;7.262;2023-04-25T04:08:32;14.50;;;7.00;;
26484;SDS011;18083;50.560;7.262;2023-04-25T04:10:59;18.17;;;6.83;;
26484;SDS011;18083;50.560;7.262;2023-04-25T04:13:27;13.53;;;6.67;;
26484;SDS011;18083;50.560;7.262;2023-04-25T04:15:54;15.13;;;6.33;;
26484;SDS011;18083;50.560;7.262;2023-04-25T04:18:22;18.83;;;7.37;;
26484;SDS011;18083;50.560;7.262;2023-04-25T04:20:49;9.30;;;5.83;;
26484;SDS011;18083;50.560;7.262;2023-04-25T04:23:16;19.17;;;6.47;;
26484;SDS011;18083;50.560;7.262;2023-04-25T04:25:44;21.83;;;7.77;;
26484;SDS011;18083;50.560;7.262;2023-04-25T04:28:11;11.00;;;5.33;;
26484;SDS011;18083;50.560;7.262;2023-04-25T04:30:40;14.60;;;6.23;;
26484;SDS011;18083;50.560;7.262;2023-04-25T04:33:08;17.60;;;6.80;;
26484;SDS011;18083;50.560;7.262;2023-04-25T04:35:35;13.33;;;6.50;;
26484;SDS011;18083;50.560;7.262;2023-04-25T04:38:03;19.30;;;7.00;;
26484;SDS011;18083;50.560;7.262;2023-04-25T04:40:30;10.13;;;5.87;;
26484;SDS011;18083;50.560;7.262;2023-04-25T04:42:58;16.80;;;8.23;;
26484;SDS011;18083;50.560;7.262;2023-04-25T04:45:25;13.00;;;5.77;;
26484;SDS011;18083;50.560;7.262;2023-04-25T04:47:53;17.33;;;6.27;;
26484;SDS011;18083;50.560;7.262;2023-04-25T04:50:21;13.90;;;6.60;;
26484;SDS011;18083;50.560;7.262;2023-04-25T04:52:48;12.47;;;6.47;;
26484;SDS011;18083;50.560;7.262;2023-04-25T04:55:16;22.80;;;6.37;;
26484;SDS011;18083;50.560;7.262;2023-04-25T04:57:43;15.33;;;5.30;;
26484;SDS011;18083;50.560;7.262;2023-04-25T05:00:10;10.97;;;5.27;;
26484;SDS011;18083;50.560;7.262;2023-04-25T05:02:38;13.63;;;6.27;;
26484;SDS011;18083;50.560;7.262;2023-04-25T05:05:05;15.90;;;6.43;;
26484;SDS011;18083;50.560;7.262;2023-04-25T05:07:33;18.33;;;7.13;;
26484;SDS011;18083;50.560;7.262;2023-04-25T05:10:01;12.50;;;5.77;;
26484;SDS011;18083;50.560;7.262;2023-04-25T05:12:28;18.43;;;6.53;;
26484;SDS011;18083;50.560;7.262;2023-04-25T05:14:56;11.70;;;5.20;;
26484;SDS011;18083;50.560;7.262;2023-04-25T05:17:23;17.97;;;5.87;;
26484;SDS011;18083;50.560;7.262;2023-04-25T05:19:51;15.03;;;6.03;;
26484;SDS011;18083;50.560;7.262;2023-04-25T05:22:19;10.17;;;5.37;;
26484;SDS011;18083;50.560;7.262;2023-04-25T05:24:46;12.90;;;6.57;;
26484;SDS011;18083;50.560;7.262;2023-04-25T05:27:16;14.97;;;6.10;;
26484;SDS011;18083;50.560;7.262;2023-04-25T05:29:44;14.00;;;5.70;;
26484;SDS011;18083;50.560;7.262;2023-04-25T05:32:11;10.77;;;5.30;;
26484;SDS011;18083;50.560;7.262;2023-04-25T05:34:38;19.90;;;6.20;;
26484;SDS011;18083;50.560;7.262;2023-04-25T05:37:06;14.03;;;5.70;;
26484;SDS011;18083;50.560;7.262;2023-04-25T05:39:33;10.90;;;5.80;;
26484;SDS011;18083;50.560;7.262;2023-04-25T05:42:00;13.83;;;5.97;;
26484;SDS011;18083;50.560;7.262;2023-04-25T05:44:28;15.93;;;5.73;;
26484;SDS011;18083;50.560;7.262;2023-04-25T05:46:55;10.80;;;5.60;;
26484;SDS011;18083;50.560;7.262;2023-04-25T05:49:22;17.80;;;6.50;;
26484;SDS011;18083;50.560;7.262;2023-04-25T05:51:50;19.37;;;6.07;;
26484;SDS011;18083;50.560;7.262;2023-04-25T05:54:17;9.13;;;5.77;;
26484;SDS011;18083;50.560;7.262;2023-04-25T05:56:44;12.30;;;6.27;;
26484;SDS011;18083;50.560;7.262;2023-04-25T05:59:11;14.77;;;7.20;;
26484;SDS011;18083;50.560;7.262;2023-04-25T06:01:39;20.47;;;5.33;;
26484;SDS011;18083;50.560;7.262;2023-04-25T06:04:06;12.27;;;5.77;;
26484;SDS011;18083;50.560;7.262;2023-04-25T06:06:33;12.70;;;5.67;;
26484;SDS011;18083;50.560;7.262;2023-04-25T06:09:01;12.47;;;5.37;;
26484;SDS011;18083;50.560;7.262;2023-04-25T06:11:28;11.37;;;6.10;;
26484;SDS011;18083;50.560;7.262;2023-04-25T06:13:56;16.97;;;6.47;;
26484;SDS011;18083;50.560;7.262;2023-04-25T06:16:23;21.47;;;6.87;;
26484;SDS011;18083;50.560;7.262;2023-04-25T06:18:52;19.90;;;7.33;;
26484;SDS011;18083;50.560;7.262;2023-04-25T06:21:19;16.53;;;6.27;;
26484;SDS011;18083;50.560;7.262;2023-04-25T06:23:46;15.27;;;6.70;;
26484;SDS011;18083;50.560;7.262;2023-04-25T06:26:14;14.93;;;6.93;;
26484;SDS011;18083;50.560;7.262;2023-04-25T06:28:41;19.60;;;6.40;;
26484;SDS011;18083;50.560;7.262;2023-04-25T06:31:08;15.20;;;7.13;;
26484;SDS011;18083;50.560;7.262;2023-04-25T06:33:36;16.60;;;6.40;;
26484;SDS011;18083;50.560;7.262;2023-04-25T06:36:03;13.53;;;6.93;;
26484;SDS011;18083;50.560;7.262;2023-04-25T06:38:30;14.83;;;6.47;;
26484;SDS011;18083;50.560;7.262;2023-04-25T06:40:58;14.40;;;6.60;;
26484;SDS011;18083;50.560;7.262;2023-04-25T06:43:25;21.77;;;9.40;;
26484;SDS011;18083;50.560;7.262;2023-04-25T06:45:52;21.17;;;7.63;;
26484;SDS011;18083;50.560;7.262;2023-04-25T06:48:20;15.83;;;6.27;;
26484;SDS011;18083;50.560;7.262;2023-04-25T06:50:47;14.50;;;6.33;;
26484;SDS011;18083;50.560;7.262;2023-04-25T06:53:14;13.77;;;6.93;;
26484;SDS011;18083;50.560;7.262;2023-04-25T06:55:42;15.30;;;6.67;;
26484;SDS011;18083;50.560;7.262;2023-04-25T06:58:09;21.27;;;7.37;;
26484;SDS011;18083;50.560;7.262;2023-04-25T07:00:36;16.73;;;6.63;;
26484;SDS011;18083;50.560;7.262;2023-04-25T07:03:04;14.87;;;6.77;;
26484;SDS011;18083;50.560;7.262;2023-04-25T07:05:31;11.37;;;5.73;;
26484;SDS011;18083;50.560;7.262;2023-04-25T07:07:58;19.97;;;6.43;;
26484;SDS011;18083;50.560;7.262;2023-04-25T07:10:26;14.33;;;6.37;;
26484;SDS011;18083;50.560;7.262;2023-04-25T07:12:53;19.60;;;7.07;;
26484;SDS011;18083;50.560;7.262;2023-04-25T07:15:21;13.30;;;6.77;;
26484;SDS011;18083;50.560;7.262;2023-04-25T07:17:48;16.27;;;6.57;;
26484;SDS011;18083;50.560;7.262;2023-04-25T07:20:15;19.33;;;7.43;;
26484;SDS011;18083;50.560;7.262;2023-04-25T07:22:43;22.93;;;7.60;;
26484;SDS011;18083;50.560;7.262;2023-04-25T07:25:10;15.77;;;5.97;;
26484;SDS011;18083;50.560;7.262;2023-04-25T07:27:37;15.77;;;7.17;;
26484;SDS011;18083;50.560;7.262;2023-04-25T07:30:05;10.33;;;4.53;;
26484;SDS011;18083;50.560;7.262;2023-04-25T07:32:33;20.23;;;7.00;;
26484;SDS011;18083;50.560;7.262;2023-04-25T07:35:00;13.80;;;5.60;;
26484;SDS011;18083;50.560;7.262;2023-04-25T07:37:28;19.50;;;5.67;;
26484;SDS011;18083;50.560;7.262;2023-04-25T07:39:55;16.73;;;4.87;;
26484;SDS011;18083;50.560;7.262;2023-04-25T07:42:22;16.17;;;4.70;;
26484;SDS011;18083;50.560;7.262;2023-04-25T07:44:50;13.13;;;4.63;;
26484;SDS011;18083;50.560;7.262;2023-04-25T07:47:17;13.47;;;5.17;;
26484;SDS011;18083;50.560;7.262;2023-04-25T07:49:48;19.80;;;6.83;;
26484;SDS011;18083;50.560;7.262;2023-04-25T07:52:15;15.27;;;5.57;;
26484;SDS011;18083;50.560;7.262;2023-04-25T07:54:43;10.38;;;4.50;;
26484;SDS011;18083;50.560;7.262;2023-04-25T07:57:10;10.37;;;4.43;;
26484;SDS011;18083;50.560;7.262;2023-04-25T07:59:37;13.40;;;4.27;;
26484;SDS011;18083;50.560;7.262;2023-04-25T08:02:05;12.27;;;7.00;;
26484;SDS011;18083;50.560;7.262;2023-04-25T08:04:32;12.50;;;4.73;;
26484;SDS011;18083;50.560;7.262;2023-04-25T08:06:59;18.25;;;6.12;;
26484;SDS011;18083;50.560;7.262;2023-04-25T08:09:27;8.67;;;5.20;;
26484;SDS011;18083;50.560;7.262;2023-04-25T08:11:55;7.33;;;4.17;;
26484;SDS011;18083;50.560;7.262;2023-04-25T08:14:22;8.80;;;4.03;;
26484;SDS011;18083;50.560;7.262;2023-04-25T08:16:49;13.53;;;4.10;;
26484;SDS011;18083;50.560;7.262;2023-04-25T08:19:17;13.23;;;3.77;;
26484;SDS011;18083;50.560;7.262;2023-04-25T08:21:44;10.70;;;3.97;;
26484;SDS011;18083;50.560;7.262;2023-04-25T08:24:11;8.83;;;4.37;;
26484;SDS011;18083;50.560;7.262;2023-04-25T08:26:39;10.65;;;4.95;;
26484;SDS011;18083;50.560;7.262;2023-04-25T08:29:07;7.80;;;4.10;;
26484;SDS011;18083;50.560;7.262;2023-04-25T08:31:34;12.53;;;4.40;;
26484;SDS011;18083;50.560;7.262;2023-04-25T08:34:01;15.33;;;5.03;;
26484;SDS011;18083;50.560;7.262;2023-04-25T08:36:29;14.63;;;6.17;;
26484;SDS011;18083;50.560;7.262;2023-04-25T08:38:57;7.73;;;4.13;;
26484;SDS011;18083;50.560;7.262;2023-04-25T08:41:25;8.03;;;4.77;;
26484;SDS011;18083;50.560;7.262;2023-04-25T08:43:53;12.93;;;5.27;;
26484;SDS011;18083;50.560;7.262;2023-04-25T08:46:20;17.50;;;4.40;;
26484;SDS011;18083;50.560;7.262;2023-04-25T08:48:48;14.55;;;6.55;;
26484;SDS011;18083;50.560;7.262;2023-04-25T08:51:22;9.40;;;4.70;;
26484;SDS011;18083;50.560;7.262;2023-04-25T08:53:54;11.00;;;3.73;;
26484;SDS011;18083;50.560;7.262;2023-04-25T08:56:21;11.03;;;4.43;;
26484;SDS011;18083;50.560;7.262;2023-04-25T08:58:49;7.03;;;3.53;;
26484;SDS011;18083;50.560;7.262;2023-04-25T09:01:19;12.00;;;3.93;;
26484;SDS011;18083;50.560;7.262;2023-04-25T09:03:46;8.73;;;3.50;;
26484;SDS011;18083;50.560;7.262;2023-04-25T09:06:14;16.70;;;3.73;;
26484;SDS011;18083;50.560;7.262;2023-04-25T09:08:42;14.20;;;3.37;;
26484;SDS011;18083;50.560;7.262;2023-04-25T09:11:09;13.83;;;3.80;;
26484;SDS011;18083;50.560;7.262;2023-04-25T09:13:37;8.73;;;3.40;;
26484;SDS011;18083;50.560;7.262;2023-04-25T09:16:04;11.90;;;4.13;;
26484;SDS011;18083;50.560;7.262;2023-04-25T09:18:33;9.97;;;3.50;;
26484;SDS011;18083;50.560;7.262;2023-04-25T09:21:07;15.53;;;3.70;;
26484;SDS011;18083;50.560;7.262;2023-04-25T09:23:45;7.07;;;3.30;;
26484;SDS011;18083;50.560;7.262;2023-04-25T09:26:15;12.00;;;4.03;;
26484;SDS011;18083;50.560;7.262;2023-04-25T09:28:43;7.07;;;3.70;;
26484;SDS011;18083;50.560;7.262;2023-04-25T09:31:12;12.27;;;3.97;;
26484;SDS011;18083;50.560;7.262;2023-04-25T09:33:40;8.60;;;4.10;;
26484;SDS011;18083;50.560;7.262;2023-04-25T09:36:08;8.83;;;4.37;;
26484;SDS011;18083;50.560;7.262;2023-04-25T09:38:41;10.83;;;4.00;;
26484;SDS011;18083;50.560;7.262;2023-04-25T09:41:08;9.07;;;3.63;;
26484;SDS011;18083;50.560;7.262;2023-04-25T09:43:36;5.93;;;4.17;;
26484;SDS011;18083;50.560;7.262;2023-04-25T09:46:10;16.10;;;5.93;;
26484;SDS011;18083;50.560;7.262;2023-04-25T09:48:40;9.40;;;3.97;;
26484;SDS011;18083;50.560;7.262;2023-04-25T09:51:14;8.23;;;4.80;;
26484;SDS011;18083;50.560;7.262;2023-04-25T09:53:46;12.00;;;6.07;;
26484;SDS011;18083;50.560;7.262;2023-04-25T09:56:12;5.93;;;3.33;;
26484;SDS011;18083;50.560;7.262;2023-04-25T09:58:40;18.37;;;4.20;;
26484;SDS011;18083;50.560;7.262;2023-04-25T10:01:08;8.40;;;3.97;;
26484;SDS011;18083;50.560;7.262;2023-04-25T10:03:36;7.87;;;3.10;;
26484;SDS011;18083;50.560;7.262;2023-04-25T10:06:17;9.10;;;4.15;;
26484;SDS011;18083;50.560;7.262;2023-04-25T10:08:35;6.83;;;3.57;;
26484;SDS011;18083;50.560;7.262;2023-04-25T10:11:08;13.32;;;4.90;;
26484;SDS011;18083;50.560;7.262;2023-04-25T10:13:32;8.53;;;4.87;;
26484;SDS011;18083;50.560;7.262;2023-04-25T10:16:00;6.03;;;3.33;;
26484;SDS011;18083;50.560;7.262;2023-04-25T10:18:28;19.53;;;5.33;;
26484;SDS011;18083;50.560;7.262;2023-04-25T10:20:56;5.93;;;3.33;;
26484;SDS011;18083;50.560;7.262;2023-04-25T10:23:24;7.10;;;3.53;;
26484;SDS011;18083;50.560;7.262;2023-04-25T10:25:52;9.73;;;3.33;;
26484;SDS011;18083;50.560;7.262;2023-04-25T10:28:19;11.30;;;3.50;;
26484;SDS011;18083;50.560;7.262;2023-04-25T10:31:07;14.33;;;5.70;;
26484;SDS011;18083;50.560;7.262;2023-04-25T10:33:18;6.73;;;3.47;;
26484;SDS011;18083;50.560;7.262;2023-04-25T10:35:47;8.97;;;3.40;;
26484;SDS011;18083;50.560;7.262;2023-04-25T10:38:14;4.87;;;3.60;;
26484;SDS011;18083;50.560;7.262;2023-04-25T10:40:42;6.22;;;3.80;;
26484;SDS011;18083;50.560;7.262;2023-04-25T10:46:01;7.93;;;3.50;;
26484;SDS011;18083;50.560;7.262;2023-04-25T10:48:30;8.53;;;3.57;;
26484;SDS011;18083;50.560;7.262;2023-04-25T10:51:07;9.93;;;3.73;;
26484;SDS011;18083;50.560;7.262;2023-04-25T10:53:34;7.43;;;3.43;;
26484;SDS011;18083;50.560;7.262;2023-04-25T10:56:18;12.13;;;3.50;;
26484;SDS011;18083;50.560;7.262;2023-04-25T10:58:47;7.60;;;3.33;;
26484;SDS011;18083;50.560;7.262;2023-04-25T11:01:14;10.47;;;3.47;;
26484;SDS011;18083;50.560;7.262;2023-04-25T11:03:42;14.63;;;4.00;;
26484;SDS011;18083;50.560;7.262;2023-04-25T11:06:15;7.20;;;3.17;;
26484;SDS011;18083;50.560;7.262;2023-04-25T11:08:46;11.73;;;3.83;;
26484;SDS011;18083;50.560;7.262;2023-04-25T11:11:07;8.67;;;3.03;;
26484;SDS011;18083;50.560;7.262;2023-04-25T11:13:35;8.58;;;2.98;;
26484;SDS011;18083;50.560;7.262;2023-04-25T11:16:02;6.30;;;2.30;;
26484;SDS011;18083;50.560;7.262;2023-04-25T11:18:29;8.40;;;2.52;;
26484;SDS011;18083;50.560;7.262;2023-04-25T11:20:58;3.92;;;3.05;;
26484;SDS011;18083;50.560;7.262;2023-04-25T11:23:26;4.35;;;2.62;;
26484;SDS011;18083;50.560;7.262;2023-04-25T11:25:53;4.70;;;3.45;;
26484;SDS011;18083;50.560;7.262;2023-04-25T11:28:21;6.80;;;2.58;;
26484;SDS011;18083;50.560;7.262;2023-04-25T11:30:49;8.30;;;3.35;;
26484;SDS011;18083;50.560;7.262;2023-04-25T11:33:22;9.88;;;4.03;;
26484;SDS011;18083;50.560;7.262;2023-04-25T11:35:48;6.75;;;2.47;;
26484;SDS011;18083;50.560;7.262;2023-04-25T11:38:15;6.85;;;2.77;;
26484;SDS011;18083;50.560;7.262;2023-04-25T11:40:42;8.48;;;3.52;;
26484;SDS011;18083;50.560;7.262;2023-04-25T11:43:10;7.95;;;2.65;;
26484;SDS011;18083;50.560;7.262;2023-04-25T11:45:37;10.80;;;3.37;;
26484;SDS011;18083;50.560;7.262;2023-04-25T11:48:04;12.50;;;3.37;;
26484;SDS011;18083;50.560;7.262;2023-04-25T11:50:32;5.35;;;3.02;;
26484;SDS011;18083;50.560;7.262;2023-04-25T11:52:59;6.12;;;3.22;;
26484;SDS011;18083;50.560;7.262;2023-04-25T11:55:26;10.80;;;2.80;;
26484;SDS011;18083;50.560;7.262;2023-04-25T11:57:55;11.25;;;3.02;;
26484;SDS011;18083;50.560;7.262;2023-04-25T12:00:23;7.28;;;2.85;;
26484;SDS011;18083;50.560;7.262;2023-04-25T12:02:51;12.07;;;3.10;;
26484;SDS011;18083;50.560;7.262;2023-04-25T12:05:19;10.05;;;3.10;;
26484;SDS011;18083;50.560;7.262;2023-04-25T12:07:47;7.92;;;2.95;;
26484;SDS011;18083;50.560;7.262;2023-04-25T12:10:17;7.40;;;2.55;;
26484;SDS011;18083;50.560;7.262;2023-04-25T12:12:43;10.48;;;2.95;;
26484;SDS011;18083;50.560;7.262;2023-04-25T12:15:11;5.65;;;2.85;;
26484;SDS011;18083;50.560;7.262;2023-04-25T12:17:41;10.63;;;2.50;;
26484;SDS011;18083;50.560;7.262;2023-04-25T12:20:09;10.67;;;3.43;;
26484;SDS011;18083;50.560;7.262;2023-04-25T12:22:37;7.75;;;3.30;;
26484;SDS011;18083;50.560;7.262;2023-04-25T12:25:04;8.03;;;3.83;;
26484;SDS011;18083;50.560;7.262;2023-04-25T12:27:32;9.73;;;2.80;;
26484;SDS011;18083;50.560;7.262;2023-04-25T12:29:59;5.57;;;3.20;;
26484;SDS011;18083;50.560;7.262;2023-04-25T12:32:27;6.30;;;2.83;;
26484;SDS011;18083;50.560;7.262;2023-04-25T12:34:55;7.10;;;3.00;;
26484;SDS011;18083;50.560;7.262;2023-04-25T12:37:23;7.63;;;3.37;;
26484;SDS011;18083;50.560;7.262;2023-04-25T12:39:50;7.47;;;2.60;;
26484;SDS011;18083;50.560;7.262;2023-04-25T12:42:17;11.40;;;3.93;;
26484;SDS011;18083;50.560;7.262;2023-04-25T12:44:45;7.67;;;2.90;;
26484;SDS011;18083;50.560;7.262;2023-04-25T12:47:12;6.10;;;2.77;;
26484;SDS011;18083;50.560;7.262;2023-04-25T12:49:40;7.37;;;2.73;;
26484;SDS011;18083;50.560;7.262;2023-04-25T12:52:08;6.80;;;3.33;;
26484;SDS011;18083;50.560;7.262;2023-04-25T12:54:36;10.28;;;3.50;;
26484;SDS011;18083;50.560;7.262;2023-04-25T12:57:03;8.85;;;3.92;;
26484;SDS011;18083;50.560;7.262;2023-04-25T12:59:30;8.70;;;3.65;;
26484;SDS011;18083;50.560;7.262;2023-04-25T13:01:58;9.75;;;3.85;;
26484;SDS011;18083;50.560;7.262;2023-04-25T13:04:25;11.35;;;3.58;;
26484;SDS011;18083;50.560;7.262;2023-04-25T13:06:52;4.85;;;3.05;;
26484;SDS011;18083;50.560;7.262;2023-04-25T13:09:20;7.10;;;3.50;;
26484;SDS011;18083;50.560;7.262;2023-04-25T13:11:47;8.88;;;4.08;;
26484;SDS011;18083;50.560;7.262;2023-04-25T13:14:14;7.42;;;2.50;;
26484;SDS011;18083;50.560;7.262;2023-04-25T13:16:41;5.45;;;2.72;;
26484;SDS011;18083;50.560;7.262;2023-04-25T13:19:09;7.40;;;2.95;;
26484;SDS011;18083;50.560;7.262;2023-04-25T13:21:37;6.12;;;3.20;;
26484;SDS011;18083;50.560;7.262;2023-04-25T13:24:05;8.30;;;3.15;;
26484;SDS011;18083;50.560;7.262;2023-04-25T13:26:32;9.15;;;2.33;;
26484;SDS011;18083;50.560;7.262;2023-04-25T13:28:59;9.50;;;3.00;;
26484;SDS011;18083;50.560;7.262;2023-04-25T13:31:29;5.40;;;2.55;;
26484;SDS011;18083;50.560;7.262;2023-04-25T13:33:56;5.95;;;2.25;;
26484;SDS011;18083;50.560;7.262;2023-04-25T13:36:24;6.45;;;2.35;;
26484;SDS011;18083;50.560;7.262;2023-04-25T13:38:52;7.83;;;2.30;;
26484;SDS011;18083;50.560;7.262;2023-04-25T13:41:19;7.83;;;2.52;;
26484;SDS011;18083;50.560;7.262;2023-04-25T13:43:46;4.62;;;2.27;;
26484;SDS011;18083;50.560;7.262;2023-04-25T13:46:14;5.10;;;2.85;;
26484;SDS011;18083;50.560;7.262;2023-04-25T13:48:42;4.97;;;2.20;;
26484;SDS011;18083;50.560;7.262;2023-04-25T13:51:10;7.12;;;2.33;;
26484;SDS011;18083;50.560;7.262;2023-04-25T13:53:38;5.12;;;2.08;;
26484;SDS011;18083;50.560;7.262;2023-04-25T13:56:05;9.58;;;2.75;;
26484;SDS011;18083;50.560;7.262;2023-04-25T13:58:32;6.45;;;2.80;;
26484;SDS011;18083;50.560;7.262;2023-04-25T14:01:00;7.80;;;2.52;;
26484;SDS011;18083;50.560;7.262;2023-04-25T14:03:27;10.63;;;2.50;;
26484;SDS011;18083;50.560;7.262;2023-04-25T14:05:54;3.35;;;2.25;;
26484;SDS011;18083;50.560;7.262;2023-04-25T14:08:21;8.33;;;2.72;;
26484;SDS011;18083;50.560;7.262;2023-04-25T14:10:49;9.45;;;2.85;;
26484;SDS011;18083;50.560;7.262;2023-04-25T14:13:16;8.10;;;3.00;;
26484;SDS011;18083;50.560;7.262;2023-04-25T14:15:43;6.17;;;2.62;;
26484;SDS011;18083;50.560;7.262;2023-04-25T14:18:11;9.65;;;2.92;;
26484;SDS011;18083;50.560;7.262;2023-04-25T14:20:38;3.50;;;2.65;;
26484;SDS011;18083;50.560;7.262;2023-04-25T14:23:06;8.60;;;2.83;;
26484;SDS011;18083;50.560;7.262;2023-04-25T14:25:33;4.77;;;2.73;;
26484;SDS011;18083;50.560;7.262;2023-04-25T14:28:02;6.07;;;3.00;;
26484;SDS011;18083;50.560;7.262;2023-04-25T14:30:29;6.05;;;2.80;;
26484;SDS011;18083;50.560;7.262;2023-04-25T14:32:56;7.60;;;2.67;;
26484;SDS011;18083;50.560;7.262;2023-04-25T14:35:24;6.83;;;2.27;;
26484;SDS011;18083;50.560;7.262;2023-04-25T14:37:51;6.77;;;1.97;;
26484;SDS011;18083;50.560;7.262;2023-04-25T14:40:19;4.27;;;2.20;;
26484;SDS011;18083;50.560;7.262;2023-04-25T14:42:48;3.37;;;1.97;;
26484;SDS011;18083;50.560;7.262;2023-04-25T14:45:17;7.50;;;1.93;;
26484;SDS011;18083;50.560;7.262;2023-04-25T14:47:44;4.30;;;2.13;;
26484;SDS011;18083;50.560;7.262;2023-04-25T14:50:11;12.23;;;2.60;;
26484;SDS011;18083;50.560;7.262;2023-04-25T14:52:39;8.10;;;2.25;;
26484;SDS011;18083;50.560;7.262;2023-04-25T14:55:06;3.65;;;1.95;;
26484;SDS011;18083;50.560;7.262;2023-04-25T14:57:34;6.83;;;2.10;;
26484;SDS011;18083;50.560;7.262;2023-04-25T15:00:02;3.83;;;1.90;;
26484;SDS011;18083;50.560;7.262;2023-04-25T15:02:31;7.20;;;1.90;;
26484;SDS011;18083;50.560;7.262;2023-04-25T15:04:59;6.15;;;2.42;;
26484;SDS011;18083;50.560;7.262;2023-04-25T15:07:26;3.98;;;2.10;;
26484;SDS011;18083;50.560;7.262;2023-04-25T15:09:54;5.70;;;2.15;;
26484;SDS011;18083;50.560;7.262;2023-04-25T15:12:22;4.70;;;2.40;;
26484;SDS011;18083;50.560;7.262;2023-04-25T15:14:51;2.55;;;1.87;;
26484;SDS011;18083;50.560;7.262;2023-04-25T15:17:19;11.30;;;2.80;;
26484;SDS011;18083;50.560;7.262;2023-04-25T15:19:46;6.78;;;1.77;;
26484;SDS011;18083;50.560;7.262;2023-04-25T15:22:13;4.30;;;2.52;;
26484;SDS011;18083;50.560;7.262;2023-04-25T15:24:40;3.60;;;1.50;;
26484;SDS011;18083;50.560;7.262;2023-04-25T15:27:08;2.72;;;1.40;;
26484;SDS011;18083;50.560;7.262;2023-04-25T15:29:35;4.00;;;2.12;;
26484;SDS011;18083;50.560;7.262;2023-04-25T15:32:02;6.00;;;2.22;;
26484;SDS011;18083;50.560;7.262;2023-04-25T15:34:30;6.70;;;2.25;;
26484;SDS011;18083;50.560;7.262;2023-04-25T15:36:57;4.05;;;2.02;;
26484;SDS011;18083;50.560;7.262;2023-04-25T15:39:24;4.45;;;2.20;;
26484;SDS011;18083;50.560;7.262;2023-04-25T15:41:51;7.72;;;2.60;;
26484;SDS011;18083;50.560;7.262;2023-04-25T15:44:19;8.13;;;2.20;;
26484;SDS011;18083;50.560;7.262;2023-04-25T15:46:46;6.67;;;2.15;;
26484;SDS011;18083;50.560;7.262;2023-04-25T15:49:14;6.05;;;1.80;;
26484;SDS011;18083;50.560;7.262;2023-04-25T15:51:41;4.08;;;2.75;;
26484;SDS011;18083;50.560;7.262;2023-04-25T15:54:08;3.47;;;2.08;;